Time;durP1;ratioP1;P1;durP2;ratioP2;P2;SDS_P1;SDS_P2;PMS_P1;PMS_P2;Temp;Humidity;BMP_temperature;BMP_pressure;BME280_temperature;BME280_humidity;BME280_pressure;Samples;Min_cycle;Max_cycle;Signal;HPM_P1;HPM_P2
2022/05/24 00:02:19;;;;;;;29.13;18.10;;;;;;;13.67;93.88;99957.50;5050813;28;20064;-81
2022/05/24 00:04:45;;;;;;;28.15;17.88;;;;;;;13.63;94.05;99952.41;5063655;28;20048;-81
2022/05/24 00:07:10;;;;;;;29.45;15.68;;;;;;;13.59;93.25;99959.13;5050913;28;20115;-81
2022/05/24 00:09:36;;;;;;;27.98;16.55;;;;;;;13.55;93.78;99952.31;5059171;28;20052;-81
2022/05/24 00:12:01;;;;;;;28.33;15.80;;;;;;;13.53;93.34;99950.75;5056919;28;20024;-81
2022/05/24 00:17:11;;;;;;;30.95;16.23;;;;;;;13.45;93.10;99943.44;5060539;28;20396;-82
2022/05/24 00:19:36;;;;;;;29.73;15.77;;;;;;;13.41;93.29;99950.16;5051073;28;20033;-82
2022/05/24 00:22:01;;;;;;;26.70;14.95;;;;;;;13.38;93.28;99945.06;5068162;28;20033;-81
2022/05/24 00:24:27;;;;;;;28.10;15.27;;;;;;;13.36;93.63;99950.59;5051889;28;20017;-83
2022/05/24 00:26:53;;;;;;;27.92;14.60;;;;;;;13.32;93.37;99957.28;5049548;28;20032;-82
2022/05/24 00:29:18;;;;;;;27.25;15.15;;;;;;;13.30;93.50;99953.88;5052504;28;20031;-82
2022/05/24 00:31:43;;;;;;;26.42;16.38;;;;;;;13.25;93.42;99951.66;5059623;28;20511;-82
2022/05/24 00:34:09;;;;;;;27.33;15.05;;;;;;;13.24;93.62;99949.94;5051756;28;20032;-82
2022/05/24 00:36:34;;;;;;;27.27;14.23;;;;;;;13.19;92.94;99946.00;5063343;28;20040;-82
2022/05/24 00:39:00;;;;;;;26.40;14.32;;;;;;;13.16;93.11;99949.84;5065224;28;20064;-82
2022/05/24 00:41:30;;;;;;;25.05;13.45;;;;;;;13.10;92.38;99943.22;5050176;28;20472;-82
2022/05/24 00:44:06;;;;;;;24.80;12.52;;;;;;;13.10;92.48;99943.22;5064352;28;20024;-81
2022/05/24 00:46:42;;;;;;;24.63;12.65;;;;;;;13.07;92.32;99943.50;5050270;28;20166;-83
2022/05/24 00:49:13;;;;;;;27.27;12.38;;;;;;;13.02;91.27;99945.00;5054431;28;20044;-81
2022/05/24 00:51:47;;;;;;;26.60;13.35;;;;;;;12.99;91.25;99945.25;5060828;28;20044;-81
2022/05/24 00:54:13;;;;;;;23.90;10.98;;;;;;;12.92;90.63;99943.16;5056562;28;20396;-81
2022/05/24 00:56:50;;;;;;;23.75;10.80;;;;;;;12.91;90.82;99948.72;5052647;28;20021;-81
2022/05/24 00:59:34;;;;;;;23.33;11.13;;;;;;;12.88;91.09;99944.47;5067348;28;20480;-81
2022/05/24 01:02:00;;;;;;;27.27;11.82;;;;;;;12.83;90.73;99945.94;5054723;28;20039;-81
2022/05/24 01:04:25;;;;;;;23.85;10.82;;;;;;;12.81;91.13;99939.81;5060409;28;20033;-82
2022/05/24 01:06:50;;;;;;;23.42;10.48;;;;;;;12.77;90.86;99942.81;5051620;28;20100;-82
2022/05/24 01:09:22;;;;;;;22.30;11.55;;;;;;;12.73;91.26;99952.22;5052311;28;20041;-81
2022/05/24 01:11:53;;;;;;;26.40;11.35;;;;;;;12.70;90.66;99946.28;5068525;28;20024;-82
2022/05/24 01:14:21;;;;;;;24.98;11.38;;;;;;;12.67;91.09;99944.72;5055571;28;20119;-81
2022/05/24 01:16:47;;;;;;;25.70;12.05;;;;;;;12.63;90.61;99940.63;5067742;28;20028;-80
2022/05/24 01:19:44;;;;;;;24.30;10.82;;;;;;;12.65;90.24;99940.47;5073062;28;20028;-82
2022/05/24 01:22:46;;;;;;;21.25;9.00;;;;;;;12.60;90.44;99940.91;5066861;28;20037;-81
2022/05/24 01:25:38;;;;;;;24.38;9.10;;;;;;;12.58;89.79;99941.06;5064175;28;20124;-82
2022/05/24 01:28:08;;;;;;;21.83;9.25;;;;;;;12.53;89.53;99948.75;5069685;28;20024;-81
2022/05/24 01:30:34;;;;;;;20.45;8.80;;;;;;;12.50;90.06;99950.88;5069430;28;20098;-82
2022/05/24 01:38:27;;;;;;;20.90;7.80;;;;;;;12.42;89.47;99957.00;5064041;28;20507;-81
2022/05/24 01:40:54;;;;;;;22.33;8.82;;;;;;;12.41;90.58;99953.44;5053652;28;20447;-82
2022/05/24 01:43:22;;;;;;;20.15;8.93;;;;;;;12.41;90.12;99963.41;5066012;28;20423;-81
2022/05/24 01:46:03;;;;;;;21.45;8.15;;;;;;;12.40;90.41;99956.28;5067589;28;20021;-81
2022/05/24 01:48:33;;;;;;;19.67;7.38;;;;;;;12.36;89.73;99955.75;5076955;28;20104;-81
2022/05/24 01:51:02;;;;;;;22.35;8.10;;;;;;;12.33;90.03;99950.66;5065445;28;20029;-81
2022/05/24 01:53:33;;;;;;;19.17;7.65;;;;;;;12.32;89.92;99954.34;5051702;28;20472;-82
2022/05/24 01:56:00;;;;;;;19.40;6.45;;;;;;;12.29;89.21;99956.50;5057449;28;20491;-82
2022/05/24 01:58:31;;;;;;;19.05;6.82;;;;;;;12.30;89.21;99955.47;5058340;28;20025;-81
2022/05/24 02:01:02;;;;;;;19.58;6.72;;;;;;;12.26;88.44;99943.31;5059983;28;20029;-82
2022/05/24 02:03:27;;;;;;;23.25;7.28;;;;;;;12.24;88.05;99956.94;5047901;28;20045;-81
2022/05/24 02:05:52;;;;;;;20.48;6.57;;;;;;;12.22;88.38;99940.88;5060674;28;20505;-82
2022/05/24 02:08:18;;;;;;;21.45;6.05;;;;;;;12.19;88.45;99940.34;5050667;28;20288;-81
2022/05/24 02:10:54;;;;;;;19.10;5.93;;;;;;;12.19;88.19;99948.41;5052937;28;20038;-81
2022/05/24 02:13:29;;;;;;;18.65;5.60;;;;;;;12.15;88.34;99953.25;5064590;28;20135;-82
2022/05/24 02:15:58;;;;;;;19.02;6.00;;;;;;;12.14;88.23;99956.06;5053860;28;20129;-82
2022/05/24 02:18:24;;;;;;;16.42;5.35;;;;;;;12.13;87.35;99955.22;5054224;28;20079;-82
2022/05/24 02:20:49;;;;;;;17.15;5.75;;;;;;;12.11;87.33;99951.84;5071397;28;20578;-82
2022/05/24 02:23:17;;;;;;;16.13;5.25;;;;;;;12.11;87.22;99962.63;5071796;28;20427;-81
2022/05/24 02:25:48;;;;;;;15.98;4.68;;;;;;;12.13;87.21;99966.00;5060459;28;20041;-82
2022/05/24 02:28:15;;;;;;;16.67;5.13;;;;;;;12.13;87.62;99954.41;5062898;28;20112;-82
2022/05/24 02:30:44;;;;;;;17.67;5.30;;;;;;;12.15;87.91;99953.25;5054747;28;20033;-82
2022/05/24 02:33:10;;;;;;;19.23;4.90;;;;;;;12.14;87.52;99954.25;5058846;28;20029;-82
2022/05/24 02:35:35;;;;;;;18.95;5.05;;;;;;;12.13;87.11;99960.63;5047710;28;20226;-81
2022/05/24 02:38:00;;;;;;;15.65;4.55;;;;;;;12.12;87.33;99958.91;5064120;28;20383;-82
2022/05/24 02:43:10;;;;;;;17.23;5.43;;;;;;;12.11;86.58;99962.63;5051747;28;20464;-82
2022/05/24 02:45:35;;;;;;;21.80;5.07;;;;;;;12.11;86.98;99968.00;5058662;28;20064;-82
2022/05/24 02:48:00;;;;;;;16.35;4.30;;;;;;;12.11;86.56;99962.63;5042297;28;20203;-82
2022/05/24 02:50:26;;;;;;;15.38;4.63;;;;;;;12.11;87.23;99957.22;5064280;28;20518;-82
2022/05/24 02:52:52;;;;;;;18.98;4.53;;;;;;;12.09;86.63;99969.97;5063520;28;20116;-82
2022/05/24 02:55:18;;;;;;;17.27;4.70;;;;;;;12.09;86.93;99967.28;5059760;28;20392;-82
2022/05/24 02:57:44;;;;;;;13.65;4.15;;;;;;;12.10;86.78;99970.84;5068553;28;20103;-82
2022/05/24 03:00:24;;;;;;;12.93;3.85;;;;;;;12.10;86.74;99960.91;5070393;28;20411;-82
2022/05/24 03:02:52;;;;;;;;;;;;;;;12.19;86.47;99951.13;5053671;28;20128;-82
2022/05/24 03:05:18;;;;;;;12.82;3.90;;;;;;;12.08;86.02;99946.75;5054945;28;19926;-82
2022/05/24 03:10:29;;;;;;;12.63;3.85;;;;;;;12.03;86.63;99962.47;5065396;28;20072;-82
2022/05/24 03:15:41;;;;;;;15.02;4.30;;;;;;;12.02;86.86;99958.06;5063652;28;20146;-82
2022/05/24 03:18:08;;;;;;;15.57;4.50;;;;;;;12.01;86.31;99956.41;5068471;28;20033;-82
2022/05/24 03:20:34;;;;;;;17.83;4.47;;;;;;;12.03;86.84;99962.47;5066975;28;20468;-82
2022/05/24 03:23:00;;;;;;;14.45;4.47;;;;;;;12.03;86.43;99962.47;5071726;28;20110;-82
2022/05/24 03:25:25;;;;;;;13.82;4.57;;;;;;;12.02;86.75;99963.47;5055515;28;20481;-81
2022/05/24 03:27:50;;;;;;;15.75;4.05;;;;;;;11.99;86.84;99969.13;5056220;28;20064;-82
2022/05/24 03:30:16;;;;;;;16.35;4.57;;;;;;;12.00;87.12;99970.84;5051816;28;20491;-82
2022/05/24 03:32:41;;;;;;;15.07;4.80;;;;;;;11.99;86.50;99972.69;5067202;28;20035;-82
2022/05/24 03:35:11;;;;;;;15.77;4.30;;;;;;;11.98;86.82;99973.69;5062159;28;20028;-82
2022/05/24 03:37:37;;;;;;;;;;;;;;;12.06;86.47;99971.13;5059690;28;20055;-82
2022/05/24 03:40:03;;;;;;;18.35;4.65;;;;;;;11.99;86.55;99963.75;5070689;28;19912;-82
2022/05/24 03:42:28;;;;;;;16.20;5.32;;;;;;;11.96;86.72;99958.66;5054606;28;20035;-82
2022/05/24 03:44:54;;;;;;;21.10;5.70;;;;;;;11.95;86.97;99965.91;5049705;28;20025;-82
2022/05/24 03:47:19;;;;;;;15.30;5.22;;;;;;;11.95;87.14;99965.03;5049638;28;20041;-82
2022/05/24 03:49:44;;;;;;;18.52;5.57;;;;;;;11.94;86.60;99963.34;5058666;28;20480;-82
2022/05/24 03:52:09;;;;;;;18.50;6.40;;;;;;;11.94;86.72;99966.03;5051207;28;20036;-82
2022/05/24 03:54:35;;;;;;;19.23;5.47;;;;;;;11.93;86.89;99981.31;5049713;28;20028;-83
2022/05/24 03:59:44;;;;;;;18.27;5.22;;;;;;;11.91;86.78;99996.75;5055395;28;20109;-83
2022/05/24 04:02:09;;;;;;;15.80;4.88;;;;;;;11.94;86.93;99990.28;5055376;28;20032;-82
2022/05/24 04:04:35;;;;;;;17.25;5.13;;;;;;;11.93;87.08;100013.63;5057896;28;20480;-82
2022/05/24 04:07:00;;;;;;;16.58;5.18;;;;;;;11.90;87.11;100019.28;5051234;28;20040;-82
2022/05/24 04:09:25;;;;;;;17.27;4.95;;;;;;;11.91;86.95;100020.16;5060071;28;20048;-82
2022/05/24 04:11:54;;;;;;;15.68;5.35;;;;;;;11.93;86.85;100031.63;5051041;28;20025;-82
2022/05/24 04:14:19;;;;;;;15.85;5.18;;;;;;;11.92;87.16;100040.69;5056744;28;20024;-82
2022/05/24 04:16:45;;;;;;;16.83;5.38;;;;;;;11.91;87.48;100037.16;5048790;28;20094;-82
2022/05/24 04:19:10;;;;;;;14.27;4.30;;;;;;;11.93;87.55;100028.94;5056957;28;20359;-83
2022/05/24 04:21:35;;;;;;;13.93;4.50;;;;;;;11.90;87.46;100008.50;5057751;28;20051;-82
2022/05/24 04:24:00;;;;;;;21.30;5.47;;;;;;;11.92;87.26;99994.91;5049451;28;20020;-82
2022/05/24 04:26:26;;;;;;;16.83;4.45;;;;;;;11.91;86.89;99987.84;5066237;28;20024;-82
2022/05/24 04:28:51;;;;;;;15.73;4.20;;;;;;;11.92;87.56;99992.22;5051405;28;20032;-82
2022/05/24 04:31:16;;;;;;;14.43;4.15;;;;;;;11.92;87.17;100001.16;5059206;28;20017;-82
2022/05/24 04:33:41;;;;;;;17.58;5.00;;;;;;;11.91;87.56;100004.00;5056988;28;20033;-82
2022/05/24 04:36:07;;;;;;;18.55;4.85;;;;;;;11.87;87.37;100025.81;5056261;28;20094;-82
2022/05/24 04:38:32;;;;;;;19.83;4.80;;;;;;;11.88;86.98;100050.91;5071550;28;20070;-82
2022/05/24 04:43:41;;;;;;;19.92;4.35;;;;;;;11.87;87.20;100033.91;5067178;28;20135;-83
2022/05/24 04:46:06;;;;;;;13.85;4.65;;;;;;;11.89;87.44;100018.44;5057249;28;20099;-82
2022/05/24 04:48:32;;;;;;;15.63;4.32;;;;;;;11.87;87.23;100025.81;5062846;28;20496;-83
2022/05/24 04:50:58;;;;;;;18.55;4.15;;;;;;;11.88;87.18;100043.66;5072254;28;20193;-82
2022/05/24 04:53:25;;;;;;;18.48;4.55;;;;;;;11.89;87.52;100036.44;5074528;28;20024;-83
2022/05/24 04:55:50;;;;;;;15.35;3.88;;;;;;;11.89;87.46;100050.75;5074246;28;20071;-83
2022/05/24 04:58:17;;;;;;;13.20;4.70;;;;;;;11.89;87.38;100056.13;5069171;28;20345;-82
2022/05/24 05:00:42;;;;;;;9.75;3.83;;;;;;;11.87;87.29;100058.13;5065320;28;20056;-83
2022/05/24 05:03:13;;;;;;;19.50;4.40;;;;;;;11.88;87.19;100072.44;5056907;28;20059;-82
2022/05/24 05:05:39;;;;;;;16.92;3.65;;;;;;;11.88;87.35;100083.22;5059564;28;20436;-82
2022/05/24 05:08:06;;;;;;;13.95;3.70;;;;;;;11.88;87.57;100086.75;5067740;28;20032;-82
2022/05/24 05:10:34;;;;;;;11.10;3.80;;;;;;;11.88;86.64;100084.03;5062851;28;20044;-82
2022/05/24 05:12:59;;;;;;;17.13;4.30;;;;;;;11.91;87.10;100090.16;5058439;28;20024;-82
2022/05/24 05:15:25;;;;;;;15.43;3.53;;;;;;;11.88;86.50;100096.66;5057080;28;20073;-83
2022/05/24 05:17:51;;;;;;;13.60;3.63;;;;;;;11.87;86.88;100098.53;5065364;28;20036;-83
2022/05/24 05:20:16;;;;;;;14.95;4.07;;;;;;;11.86;86.26;100093.28;5063370;28;20033;-82
2022/05/24 05:22:42;;;;;;;14.60;3.80;;;;;;;11.87;86.24;100085.06;5060227;28;20400;-83
2022/05/24 05:25:08;;;;;;;15.85;4.15;;;;;;;11.91;86.44;100087.47;5056897;28;20040;-83
2022/05/24 05:27:33;;;;;;;16.08;4.28;;;;;;;11.92;86.59;100084.63;5075942;28;20054;-83
2022/05/24 05:32:50;;;;;;;16.48;4.63;;;;;;;11.92;85.23;100097.22;5052524;28;20373;-83
2022/05/24 05:35:16;;;;;;;17.50;4.70;;;;;;;11.92;86.17;100083.75;5045382;28;20127;-83
2022/05/24 05:37:42;;;;;;;15.57;3.75;;;;;;;11.89;85.27;100072.28;5021610;28;20335;-82
2022/05/24 05:40:08;;;;;;;22.20;5.07;;;;;;;11.90;85.48;100075.81;5036482;28;20056;-83
2022/05/24 05:42:34;;;;;;;16.65;4.00;;;;;;;11.89;86.00;100080.38;5039736;28;20032;-83
2022/05/24 05:45:00;;;;;;;14.48;3.67;;;;;;;11.93;86.43;100082.78;5040907;28;20071;-82
2022/05/24 05:47:25;;;;;;;16.20;4.43;;;;;;;11.92;85.40;100075.69;5039690;28;20446;-83
2022/05/24 05:49:50;;;;;;;14.45;3.88;;;;;;;11.91;86.04;100085.63;5048812;28;20532;-82
2022/05/24 05:52:16;;;;;;;15.20;3.67;;;;;;;11.91;85.13;100099.06;5046744;28;20036;-83
2022/05/24 05:54:41;;;;;;;10.52;3.80;;;;;;;11.91;84.64;100106.31;5040911;28;20083;-82
2022/05/24 05:57:07;;;;;;;13.60;3.63;;;;;;;11.89;84.66;100120.75;5047201;28;20033;-83
2022/05/24 05:59:33;;;;;;;14.32;3.60;;;;;;;11.89;85.06;100125.31;5039766;28;20053;-82
2022/05/24 06:01:58;;;;;;;14.13;3.42;;;;;;;11.88;84.58;100126.28;5028432;28;20033;-82
2022/05/24 06:04:25;;;;;;;17.58;4.20;;;;;;;11.89;85.18;100136.91;5039802;28;20045;-82
2022/05/24 06:06:52;;;;;;;18.02;3.97;;;;;;;11.92;85.57;100132.22;5030293;28;20037;-82
2022/05/24 06:09:17;;;;;;;15.68;3.55;;;;;;;11.89;85.06;100131.53;5048829;28;20048;-83
2022/05/24 06:11:44;;;;;;;10.82;3.42;;;;;;;11.95;85.43;100132.84;5051803;28;20033;-82
2022/05/24 06:14:10;;;;;;;11.35;3.47;;;;;;;11.96;85.09;100144.47;5052921;28;20108;-83
2022/05/24 06:16:36;;;;;;;18.50;3.80;;;;;;;12.00;85.61;100153.97;5057685;28;20480;-83
2022/05/24 06:19:02;;;;;;;17.10;4.45;;;;;;;12.07;84.89;100141.66;5053166;28;20029;-83
2022/05/24 06:21:28;;;;;;;13.45;3.80;;;;;;;12.19;85.06;100145.06;5052777;28;20052;-83
2022/05/24 06:23:53;;;;;;;12.80;3.25;;;;;;;12.26;84.10;100150.75;5052882;28;20021;-83
2022/05/24 06:26:21;;;;;;;13.38;3.75;;;;;;;12.32;82.88;100134.03;5052899;28;20029;-83
2022/05/24 06:28:47;;;;;;;11.88;3.53;;;;;;;12.34;82.02;100145.50;5081386;28;20103;-84
2022/05/24 06:31:12;;;;;;;13.82;3.28;;;;;;;12.35;81.08;100142.66;5053041;28;20235;-83
2022/05/24 06:33:37;;;;;;;14.82;3.38;;;;;;;12.37;81.82;100140.69;5060770;28;20025;-82
2022/05/24 06:36:03;;;;;;;9.40;3.13;;;;;;;12.45;82.30;100148.06;5057130;28;20225;-82
2022/05/24 06:38:28;;;;;;;11.18;3.10;;;;;;;12.52;82.57;100148.34;5061303;28;20025;-83
2022/05/24 06:40:53;;;;;;;11.02;3.90;;;;;;;12.61;82.79;100136.72;5051296;28;20139;-82
2022/05/24 06:43:18;;;;;;;9.05;3.65;;;;;;;12.64;80.60;100160.69;5068300;28;20032;-83
2022/05/24 06:45:44;;;;;;;13.68;3.65;;;;;;;12.65;78.60;100153.44;5068080;28;20111;-83
2022/05/24 06:48:10;;;;;;;10.38;2.67;;;;;;;12.66;78.27;100160.53;5056776;28;20033;-81
2022/05/24 06:50:37;;;;;;;11.95;3.35;;;;;;;12.72;79.88;100170.75;5075127;28;20026;-83
2022/05/24 06:53:03;;;;;;;11.75;3.17;;;;;;;12.81;79.67;100174.44;5070634;28;20510;-84
2022/05/24 06:55:28;;;;;;;13.30;3.55;;;;;;;12.90;80.71;100176.28;5074400;28;20023;-82
2022/05/24 06:57:53;;;;;;;11.43;3.13;;;;;;;13.02;79.94;100177.81;5079524;28;20028;-83
2022/05/24 07:03:06;;;;;;;12.35;3.03;;;;;;;13.12;77.06;100183.19;5075807;28;20522;-82
2022/05/24 07:05:32;;;;;;;10.18;3.60;;;;;;;13.13;76.39;100186.72;5073188;28;20861;-84
2022/05/24 07:08:00;;;;;;;10.35;3.30;;;;;;;13.17;77.05;100188.16;5074752;28;20035;-83
2022/05/24 07:10:27;;;;;;;12.73;3.28;;;;;;;13.20;76.59;100185.16;5076950;28;20051;-83
2022/05/24 07:13:11;;;;;;;10.23;3.20;;;;;;;13.25;77.88;100190.94;5073832;28;20388;-83
2022/05/24 07:15:37;;;;;;;15.43;4.00;;;;;;;13.26;75.65;100209.69;5073109;28;20033;-83
2022/05/24 07:18:04;;;;;;;11.82;3.22;;;;;;;13.25;75.24;100193.66;5055889;28;20029;-83
2022/05/24 07:20:33;;;;;;;17.40;3.63;;;;;;;13.26;76.29;100203.44;5070572;28;20862;-83
2022/05/24 07:23:09;;;;;;;13.43;3.85;;;;;;;13.30;76.17;100196.78;5072636;28;20028;-83
2022/05/24 07:25:36;;;;;;;12.20;3.47;;;;;;;13.34;75.80;100214.41;5072403;28;20020;-82
2022/05/24 07:28:02;;;;;;;10.23;3.00;;;;;;;13.33;74.11;100207.28;5068083;28;20032;-83
2022/05/24 07:30:28;;;;;;;11.60;3.72;;;;;;;13.34;74.17;100211.72;5078688;28;20450;-84
2022/05/24 07:32:53;;;;;;;12.63;3.45;;;;;;;13.36;74.60;100211.56;5074836;28;20104;-83
2022/05/24 07:35:18;;;;;;;11.55;3.03;;;;;;;13.42;74.95;100213.66;5072592;28;20026;-84
2022/05/24 07:37:43;;;;;;;10.55;2.90;;;;;;;13.44;73.52;100214.34;5076829;28;20386;-83
2022/05/24 07:48:11;;;;;;;14.45;3.13;;;;;;;13.69;70.60;100229.09;5071124;28;20041;-84
2022/05/24 07:50:36;;;;;;;8.75;3.10;;;;;;;13.64;70.62;100226.78;5068049;28;20072;-84
2022/05/24 07:53:02;;;;;;;8.65;3.33;;;;;;;13.62;70.43;100236.06;5075236;28;20040;-84
2022/05/24 07:55:27;;;;;;;13.43;3.25;;;;;;;13.63;70.85;100235.03;5079704;28;20016;-84
2022/05/24 07:57:53;;;;;;;13.95;4.05;;;;;;;13.62;70.86;100236.91;5074269;28;20060;-84
2022/05/24 08:00:18;;;;;;;9.80;3.80;;;;;;;13.67;71.97;100238.31;5082347;28;20028;-84
2022/05/24 08:02:44;;;;;;;8.60;3.35;;;;;;;13.72;72.58;100239.59;5077876;28;20027;-84
2022/05/24 08:05:10;;;;;;;10.20;3.80;;;;;;;13.80;72.85;100228.03;5075615;28;20055;-84
2022/05/24 08:07:36;;;;;;;10.18;3.70;;;;;;;13.86;71.39;100237.38;5075529;28;20035;-84
2022/05/24 08:10:03;;;;;;;8.80;3.40;;;;;;;13.91;72.05;100249.44;5074335;28;20359;-83
2022/05/24 08:12:29;;;;;;;9.23;3.22;;;;;;;13.95;70.95;100240.06;5071766;28;20054;-84
2022/05/24 08:14:54;;;;;;;11.93;4.43;;;;;;;13.94;69.36;100251.00;5076891;28;20028;-84
2022/05/24 08:17:19;;;;;;;13.07;4.25;;;;;;;13.96;71.06;100257.94;5073539;28;20115;-84
2022/05/24 08:19:45;;;;;;;14.20;4.47;;;;;;;14.02;70.64;100255.66;5076821;28;20020;-83
2022/05/24 08:22:10;;;;;;;13.23;4.60;;;;;;;14.12;71.23;100259.16;5074849;28;20067;-84
2022/05/24 08:24:35;;;;;;;19.20;5.18;;;;;;;14.19;70.68;100267.50;5081252;28;20085;-84
2022/05/24 08:27:01;;;;;;;15.35;4.90;;;;;;;14.23;71.13;100269.78;5075316;28;20036;-84
2022/05/24 08:29:26;;;;;;;14.25;4.40;;;;;;;14.21;70.51;100269.06;5075929;28;20139;-84
2022/05/24 08:31:51;;;;;;;9.82;3.80;;;;;;;14.17;69.47;100281.16;5084868;28;20070;-83
2022/05/24 08:34:17;;;;;;;10.65;3.50;;;;;;;14.16;70.23;100279.50;5082554;28;20032;-84
2022/05/24 08:36:42;;;;;;;11.00;3.35;;;;;;;14.10;69.53;100282.75;5063060;28;20120;-84
2022/05/24 08:39:08;;;;;;;12.82;4.00;;;;;;;14.10;71.02;100280.94;5072822;28;20081;-84
2022/05/24 08:41:56;;;;;;;6.90;3.15;;;;;;;14.10;71.05;100298.97;5079864;28;20464;-84
2022/05/24 08:50:05;;;;;;;12.27;3.60;;;;;;;14.11;69.36;100314.19;5060100;28;20172;-84
2022/05/24 08:52:42;;;;;;;10.25;3.67;;;;;;;14.13;69.74;100313.06;5074009;28;20048;-84
2022/05/24 08:55:10;;;;;;;9.35;3.22;;;;;;;14.12;69.33;100310.50;5080715;28;20020;-85
2022/05/24 08:57:57;;;;;;;9.95;3.20;;;;;;;14.10;70.01;100323.31;5084329;28;20024;-84
2022/05/24 09:00:34;;;;;;;8.20;2.90;;;;;;;14.03;68.30;100330.31;5081186;28;20564;-85
2022/05/24 09:03:04;;;;;;;9.85;2.78;;;;;;;13.96;67.55;100328.19;5081308;28;20028;-83
2022/05/24 09:05:37;;;;;;;8.55;3.13;;;;;;;13.91;68.91;100329.63;5074918;28;20039;-84
2022/05/24 09:08:16;;;;;;;9.20;2.78;;;;;;;13.86;69.01;100330.06;5082635;28;20028;-84
2022/05/24 09:10:55;;;;;;;6.85;2.83;;;;;;;13.80;68.95;100331.50;5069225;28;20044;-85
2022/05/24 09:13:50;;;;;;;8.30;2.90;;;;;;;13.87;70.39;100345.28;5082039;28;20480;-84
2022/05/24 09:16:17;;;;;;;11.15;2.80;;;;;;;13.99;70.87;100343.25;5080876;28;20367;-84
2022/05/24 09:19:04;;;;;;;14.85;3.50;;;;;;;14.10;70.87;100353.03;5079444;28;20024;-84
2022/05/24 09:21:31;;;;;;;12.00;4.35;;;;;;;14.16;68.88;100350.59;5071996;28;20034;-84
2022/05/24 09:24:05;;;;;;;8.23;3.65;;;;;;;14.19;69.17;100346.75;5075843;28;20029;-85
2022/05/24 09:26:34;;;;;;;12.90;4.32;;;;;;;14.18;68.27;100358.56;5053639;28;20031;-83
2022/05/24 09:29:13;;;;;;;10.85;4.20;;;;;;;14.12;67.36;100359.16;5075635;28;20056;-85
2022/05/24 09:31:42;;;;;;;13.25;4.75;;;;;;;14.06;67.68;100366.00;5076996;28;20488;-83
2022/05/24 09:34:16;;;;;;;12.90;4.70;;;;;;;14.01;67.53;100364.72;5078254;28;20106;-85
2022/05/24 09:36:53;;;;;;;13.70;4.80;;;;;;;14.02;66.89;100366.44;5077664;28;20038;-83
2022/05/24 09:39:27;;;;;;;16.30;5.80;;;;;;;14.06;67.12;100362.44;5080761;28;20414;-84
2022/05/24 09:42:01;;;;;;;12.98;5.28;;;;;;;14.14;68.39;100376.06;5079807;28;20036;-85
2022/05/24 09:44:40;;;;;;;13.63;5.10;;;;;;;14.20;67.64;100377.31;5074354;28;20032;-85
2022/05/24 09:47:20;;;;;;;15.53;5.63;;;;;;;14.36;69.50;100374.00;5081370;28;20031;-84
2022/05/24 09:49:45;;;;;;;15.02;6.45;;;;;;;14.57;71.69;100374.59;5091301;28;20387;-85
2022/05/24 09:52:13;;;;;;;13.95;5.85;;;;;;;14.74;66.12;100380.25;5081397;28;20103;-85
2022/05/24 09:55:00;;;;;;;15.68;6.38;;;;;;;14.90;67.91;100379.56;5081550;28;20074;-83
2022/05/24 09:57:29;;;;;;;17.85;6.80;;;;;;;15.05;66.50;100393.44;5075487;28;20555;-85
2022/05/24 10:00:20;;;;;;;15.15;6.00;;;;;;;15.14;65.92;100368.13;5068277;28;20449;-84
2022/05/24 10:02:47;;;;;;;18.60;7.03;;;;;;;15.29;65.80;100374.72;5080213;28;20048;-85
2022/05/24 10:05:22;;;;;;;16.13;7.00;;;;;;;15.42;64.81;100381.59;5074134;28;20497;-84
2022/05/24 10:07:58;;;;;;;18.10;7.45;;;;;;;15.54;63.83;100383.06;5067859;28;20032;-85
2022/05/24 10:10:29;;;;;;;17.00;7.40;;;;;;;15.68;65.43;100384.34;5063416;28;20076;-85
2022/05/24 10:13:12;;;;;;;15.02;6.68;;;;;;;15.75;62.03;100390.00;5066715;28;20032;-85
2022/05/24 10:15:52;;;;;;;15.63;6.10;;;;;;;15.76;61.43;100387.13;5066408;28;20700;-85
2022/05/24 10:18:33;;;;;;;13.70;5.78;;;;;;;15.79;61.63;100386.00;5066179;28;20032;-85
2022/05/24 10:21:29;;;;;;;15.70;6.32;;;;;;;15.78;62.08;100392.41;5066274;28;20047;-85
2022/05/24 10:24:32;;;;;;;16.38;7.25;;;;;;;15.89;62.25;100397.59;5065520;28;20425;-84
2022/05/24 10:27:13;;;;;;;16.80;7.93;;;;;;;15.85;60.00;100401.63;5067199;28;20036;-85
2022/05/24 10:30:02;;;;;;;18.77;8.13;;;;;;;15.80;60.91;100393.13;5063884;28;20461;-84
2022/05/24 10:38:58;;;;;;;20.10;7.90;;;;;;;15.87;57.69;100407.72;5064988;28;20058;-83
2022/05/24 10:41:37;;;;;;;17.17;7.43;;;;;;;15.79;59.14;100410.41;5056705;28;20032;-85
2022/05/24 10:44:18;;;;;;;20.55;8.18;;;;;;;15.70;59.04;100420.28;5063381;28;20100;-84
2022/05/24 10:47:00;;;;;;;19.58;8.90;;;;;;;15.65;58.26;100425.31;5064565;28;20024;-84
2022/05/24 10:49:33;;;;;;;19.58;8.10;;;;;;;15.57;57.93;100426.09;5051801;28;20027;-84
2022/05/24 10:52:20;;;;;;;18.50;8.05;;;;;;;15.55;59.62;100417.28;5067442;28;20020;-84
2022/05/24 10:55:19;;;;;;;19.55;8.32;;;;;;;15.54;59.68;100416.41;5068746;28;20028;-84
2022/05/24 10:57:50;;;;;;;17.00;7.60;;;;;;;15.51;59.84;100414.03;5064693;28;20041;-85
2022/05/24 11:00:19;;;;;;;15.35;6.65;;;;;;;15.52;63.31;100415.72;5080075;28;20370;-85
2022/05/24 11:02:59;;;;;;;15.00;5.23;;;;;;;15.52;63.28;100421.16;5074267;28;20032;-84
2022/05/24 11:05:47;;;;;;;23.02;5.32;;;;;;;15.58;63.87;100426.94;5071383;28;20048;-84
2022/05/24 11:08:18;;;;;;;15.82;5.13;;;;;;;15.63;64.21;100420.06;5068912;28;20380;-84
2022/05/24 11:10:48;;;;;;;15.00;5.72;;;;;;;15.63;61.31;100422.75;5075677;28;20109;-85
2022/05/24 11:13:22;;;;;;;14.07;5.22;;;;;;;15.70;63.19;100410.28;5071454;28;20112;-85
2022/05/24 11:15:53;;;;;;;15.27;6.13;;;;;;;15.68;61.47;100419.56;5061557;28;20028;-85
2022/05/24 11:18:25;;;;;;;16.85;6.88;;;;;;;15.67;61.60;100421.44;5079077;28;20859;-86
2022/05/24 11:20:50;;;;;;;16.60;6.72;;;;;;;15.81;59.17;100416.50;5074989;28;20532;-85
2022/05/24 11:23:21;;;;;;;17.83;7.07;;;;;;;15.90;58.77;100416.41;5080612;28;20044;-85
2022/05/24 11:25:53;;;;;;;16.80;7.93;;;;;;;15.96;58.23;100423.06;5079947;28;20278;-85
2022/05/24 11:28:33;;;;;;;18.10;7.05;;;;;;;16.00;58.38;100419.03;5079077;28;20101;-85
2022/05/24 11:31:40;;;;;;;16.83;7.20;;;;;;;16.02;58.32;100429.72;5081432;28;20034;-85
2022/05/24 11:34:17;;;;;;;17.73;5.70;;;;;;;15.85;56.68;100429.56;5021026;28;20126;-85
2022/05/24 11:37:01;;;;;;;17.38;6.40;;;;;;;15.75;58.46;100436.06;5037524;28;20037;-85
2022/05/24 11:39:32;;;;;;;15.52;6.00;;;;;;;15.83;60.39;100430.75;5039030;28;20541;-85
2022/05/24 11:42:37;;;;;;;15.55;6.68;;;;;;;15.90;60.39;100443.53;5043934;28;20025;-86
2022/05/24 11:45:34;;;;;;;17.90;7.25;;;;;;;16.00;58.86;100439.84;5033174;28;20068;-85
2022/05/24 11:48:05;;;;;;;15.98;6.78;;;;;;;16.10;59.47;100448.72;5045330;28;20041;-87
2022/05/24 11:50:31;;;;;;;16.13;7.43;;;;;;;16.10;57.84;100443.31;5043545;28;20052;-85
2022/05/24 11:53:02;;;;;;;18.30;7.57;;;;;;;16.19;60.42;100447.81;5043227;28;20067;-86
2022/05/24 11:55:39;;;;;;;16.50;6.47;;;;;;;16.32;60.11;100444.63;5044848;28;20341;-86
2022/05/24 11:58:31;;;;;;;16.58;6.20;;;;;;;16.49;59.41;100452.91;5026581;28;20051;-86
2022/05/24 12:01:10;;;;;;;15.77;6.63;;;;;;;16.46;57.35;100451.34;5022965;28;20412;-86
2022/05/24 12:09:12;;;;;;;18.17;7.22;;;;;;;16.28;56.07;100459.53;5051047;28;20099;-85
2022/05/24 12:11:38;;;;;;;14.52;6.25;;;;;;;16.18;62.62;100483.19;5069262;28;20029;-86
2022/05/24 12:14:39;;;;;;;14.35;5.40;;;;;;;16.01;62.30;100493.91;5074784;28;20047;-85
2022/05/24 12:17:04;;;;;;;13.75;5.10;;;;;;;15.72;63.71;100497.69;5009635;28;20490;-85
2022/05/24 12:19:37;;;;;;;12.77;5.32;;;;;;;15.65;66.51;100502.03;5020975;28;20120;-84
2022/05/24 12:22:06;;;;;;;14.55;5.32;;;;;;;15.64;70.18;100502.19;5038548;28;20041;-85
2022/05/24 12:24:31;;;;;;;13.93;5.60;;;;;;;15.67;69.66;100501.88;5017312;28;20037;-85
2022/05/24 12:27:21;;;;;;;12.18;5.07;;;;;;;15.71;70.63;100501.41;5024223;28;20591;-84